Time;durP1;ratioP1;P1;durP2;ratioP2;P2;SDS_P1;SDS_P2;PMS_P1;PMS_P2;Temp;Humidity;BMP_temperature;BMP_pressure;BME280_temperature;BME280_humidity;BME280_pressure;Samples;Min_cycle;Max_cycle;Signal;HPM_P1;HPM_P2
2021/11/06 00:00:29;;;;;;;11.27;3.40;;;;;;;-142.75;100.00;78564.84;5031420;28;20025;-69
2021/11/06 00:02:54;;;;;;;9.02;3.33;;;;;;;-142.75;100.00;78553.03;5025196;28;20064;-70
2021/11/06 00:05:20;;;;;;;8.60;3.60;;;;;;;-142.75;100.00;78574.69;5046247;28;20478;-69
2021/11/06 00:07:45;;;;;;;10.27;4.10;;;;;;;-142.75;100.00;78572.72;5043166;28;20028;-69
2021/11/06 00:10:11;;;;;;;8.82;3.80;;;;;;;-142.75;100.00;78580.59;5042703;28;20021;-70
2021/11/06 00:12:38;;;;;;;7.53;4.10;;;;;;;-142.75;100.00;78594.41;5018677;28;20029;-70
2021/11/06 00:15:05;;;;;;;7.43;3.87;;;;;;;-142.75;100.00;78594.41;5042477;28;20029;-69
2021/11/06 00:17:31;;;;;;;11.53;4.33;;;;;;;-142.75;100.00;78594.41;5043461;28;20384;-68
2021/11/06 00:19:56;;;;;;;11.43;4.70;;;;;;;-142.75;100.00;78586.53;5037073;28;20028;-69
2021/11/06 00:22:22;;;;;;;9.90;4.85;;;;;;;-142.75;100.00;78584.56;5041922;28;20376;-70
2021/11/06 00:24:47;;;;;;;12.02;4.30;;;;;;;-142.75;100.00;78602.28;5042542;28;20068;-70
2021/11/06 00:27:13;;;;;;;11.35;5.20;;;;;;;-142.75;100.00;78578.63;5035669;28;20029;-70
2021/11/06 00:29:38;;;;;;;11.43;4.65;;;;;;;-142.75;100.00;78576.66;5016790;28;20021;-70
2021/11/06 00:32:04;;;;;;;12.55;4.68;;;;;;;-142.75;100.00;78574.69;5017766;28;20019;-68
2021/11/06 00:34:29;;;;;;;11.30;4.18;;;;;;;-142.75;100.00;78586.53;5042758;28;20116;-68
2021/11/06 00:36:54;;;;;;;14.23;4.68;;;;;;;-142.75;100.00;78598.34;5019733;28;20027;-70
2021/11/06 00:39:20;;;;;;;11.32;4.90;;;;;;;-142.75;100.00;78582.59;5044746;28;20108;-68
2021/11/06 00:41:56;;;;;;;9.07;4.57;;;;;;;-142.75;100.00;78570.75;5048207;28;20111;-69
2021/11/06 00:44:22;;;;;;;9.20;4.63;;;;;;;-142.75;100.00;78576.66;5019001;28;20061;-69
2021/11/06 00:46:48;;;;;;;10.27;4.97;;;;;;;-142.75;100.00;78556.97;5018881;28;20402;-69
2021/11/06 00:49:14;;;;;;;12.27;4.80;;;;;;;-142.75;100.00;78602.28;5040155;28;20018;-70
2021/11/06 00:51:39;;;;;;;8.80;4.93;;;;;;;-142.75;100.00;78580.59;5019287;28;20397;-69
2021/11/06 00:54:04;;;;;;;12.40;4.88;;;;;;;-142.75;100.00;78588.50;5016220;28;20017;-68
2021/11/06 00:56:29;;;;;;;9.25;4.88;;;;;;;-142.75;100.00;78602.28;5038840;28;20021;-69
2021/11/06 00:58:55;;;;;;;11.95;5.35;;;;;;;-142.75;100.00;78600.31;5041873;28;20029;-70
2021/11/06 01:01:20;;;;;;;10.30;4.80;;;;;;;-142.75;100.00;78602.28;5009913;28;20029;-70
2021/11/06 01:03:45;;;;;;;10.07;4.95;;;;;;;-142.75;100.00;78600.31;5038506;28;20395;-68
2021/11/06 01:06:11;;;;;;;14.32;5.03;;;;;;;-142.75;100.00;78606.22;5017636;28;20029;-69
2021/11/06 01:08:37;;;;;;;15.27;5.50;;;;;;;-142.75;100.00;78602.28;5030567;28;20022;-69
2021/11/06 01:11:02;;;;;;;11.07;4.68;;;;;;;-142.75;100.00;78596.38;5022358;28;20032;-70
2021/11/06 01:13:28;;;;;;;8.57;4.85;;;;;;;-142.75;100.00;78602.28;5040147;28;20024;-69
2021/11/06 01:15:53;;;;;;;13.35;5.05;;;;;;;-142.75;100.00;78606.22;5038656;28;20478;-69
2021/11/06 01:18:18;;;;;;;18.30;5.10;;;;;;;-142.75;100.00;78618.03;5041447;28;20025;-69
2021/11/06 01:20:44;;;;;;;13.00;5.28;;;;;;;-142.75;100.00;78616.06;5036039;28;20518;-71
2021/11/06 01:23:09;;;;;;;12.82;5.55;;;;;;;-142.75;100.00;78616.06;5021377;28;20083;-69
2021/11/06 01:25:36;;;;;;;11.30;5.13;;;;;;;-142.75;100.00;78614.09;5032326;28;20130;-70
2021/11/06 01:28:02;;;;;;;13.07;5.23;;;;;;;-142.75;100.00;78616.06;5035219;28;20418;-69
2021/11/06 01:30:27;;;;;;;11.73;5.68;;;;;;;-142.75;100.00;78608.19;5027249;28;20035;-70
2021/11/06 01:32:52;;;;;;;10.70;4.75;;;;;;;-142.75;100.00;78621.97;5024875;28;20491;-70
2021/11/06 01:35:18;;;;;;;9.57;4.63;;;;;;;-142.75;100.00;78610.16;5038653;28;20025;-70
2021/11/06 01:37:44;;;;;;;15.68;5.05;;;;;;;-142.75;100.00;78610.16;5041369;28;20359;-70
2021/11/06 01:40:12;;;;;;;8.73;4.87;;;;;;;-142.75;100.00;78620.00;5034400;28;20400;-70
2021/11/06 01:42:39;;;;;;;11.70;5.10;;;;;;;-142.75;100.00;78621.97;5033090;28;20463;-70
2021/11/06 01:45:05;;;;;;;13.40;5.50;;;;;;;-142.75;100.00;78627.88;5014308;28;20108;-70
2021/11/06 01:47:30;;;;;;;13.02;5.53;;;;;;;-142.75;100.00;78618.03;5030626;28;20021;-68
2021/11/06 01:49:56;;;;;;;16.50;5.72;;;;;;;-142.75;100.00;78618.03;5028445;28;20033;-69
2021/11/06 01:52:21;;;;;;;11.77;5.68;;;;;;;-142.75;100.00;78606.22;5030723;28;20507;-69
2021/11/06 01:54:47;;;;;;;10.95;5.07;;;;;;;-142.75;100.00;78598.34;5036320;28;20116;-69
2021/11/06 01:57:12;;;;;;;11.50;5.20;;;;;;;-142.75;100.00;78598.34;5035400;28;20025;-70
2021/11/06 01:59:38;;;;;;;9.60;4.97;;;;;;;-142.75;100.00;78598.34;5026762;28;20658;-67
2021/11/06 02:02:03;;;;;;;10.98;5.65;;;;;;;-142.75;100.00;78598.34;5038832;28;20274;-69
2021/11/06 02:04:29;;;;;;;16.67;6.00;;;;;;;-142.75;100.00;78566.81;5036703;28;20108;-71
2021/11/06 02:06:54;;;;;;;14.60;6.07;;;;;;;-142.75;100.00;78566.81;5038038;28;20023;-70
2021/11/06 02:09:19;;;;;;;10.95;5.82;;;;;;;-142.75;100.00;78566.81;5039693;28;20480;-70
2021/11/06 02:11:45;;;;;;;14.23;6.13;;;;;;;-142.75;100.00;78576.66;5034403;28;20025;-68
2021/11/06 02:14:10;;;;;;;14.30;6.13;;;;;;;-142.75;100.00;78586.53;5021385;28;20017;-69
2021/11/06 02:16:36;;;;;;;11.82;5.80;;;;;;;-142.75;100.00;78572.72;5018563;28;20021;-70
2021/11/06 02:19:02;;;;;;;11.48;5.88;;;;;;;-142.75;100.00;78566.81;5022452;28;20040;-72
2021/11/06 02:21:27;;;;;;;13.70;6.07;;;;;;;-142.75;100.00;78568.78;5032440;28;20028;-69
2021/11/06 02:23:53;;;;;;;12.27;5.40;;;;;;;-142.75;100.00;78562.88;5016858;28;20028;-69
2021/11/06 02:26:20;;;;;;;12.68;6.13;;;;;;;-142.75;100.00;78555.00;5038262;28;20071;-71
2021/11/06 02:28:51;;;;;;;12.07;6.60;;;;;;;-142.75;100.00;78555.00;5041108;28;20032;-70
2021/11/06 02:31:17;;;;;;;15.73;6.47;;;;;;;-142.75;100.00;78558.94;5017381;28;20028;-71
2021/11/06 02:33:43;;;;;;;16.00;6.97;;;;;;;-142.75;100.00;78572.72;5032970;28;20071;-73
2021/11/06 02:36:08;;;;;;;16.38;7.07;;;;;;;-142.75;100.00;78560.91;5034833;28;20414;-72
2021/11/06 02:38:33;;;;;;;15.07;6.78;;;;;;;-142.75;100.00;78562.88;5037373;28;20025;-72
2021/11/06 02:40:59;;;;;;;13.00;6.65;;;;;;;-142.75;100.00;78566.81;5037094;28;20021;-72
2021/11/06 02:43:25;;;;;;;13.27;7.03;;;;;;;-142.75;100.00;78572.72;5048643;28;20029;-72
2021/11/06 02:45:50;;;;;;;13.82;7.10;;;;;;;-142.75;100.00;78570.75;5035474;28;20036;-71
2021/11/06 02:48:16;;;;;;;12.05;6.47;;;;;;;-142.75;100.00;78566.81;5015478;28;20036;-72
2021/11/06 02:50:41;;;;;;;13.20;7.07;;;;;;;-142.75;100.00;78568.78;5032990;28;20072;-73
2021/11/06 02:53:06;;;;;;;10.95;6.65;;;;;;;-142.75;100.00;78556.97;5037587;28;20109;-71
2021/11/06 02:55:32;;;;;;;13.40;7.30;;;;;;;-142.75;100.00;78562.88;5035034;28;20090;-72
2021/11/06 02:57:58;;;;;;;11.98;7.28;;;;;;;-142.75;100.00;78572.72;5035806;28;20021;-71
2021/11/06 03:00:27;;;;;;;12.23;7.55;;;;;;;-142.75;100.00;78580.59;5032563;28;20025;-69
2021/11/06 03:02:53;;;;;;;15.40;7.63;;;;;;;-142.75;100.00;78588.50;5035465;28;20032;-71
2021/11/06 03:05:18;;;;;;;13.27;7.67;;;;;;;-142.75;100.00;78578.63;5017736;28;20085;-73
2021/11/06 03:07:44;;;;;;;13.77;7.93;;;;;;;-142.75;100.00;78566.81;5032383;28;20083;-71
2021/11/06 03:10:11;;;;;;;13.43;8.48;;;;;;;-142.75;100.00;78566.81;5035889;28;21005;-72
2021/11/06 03:12:37;;;;;;;14.10;7.33;;;;;;;-142.75;100.00;78564.84;5018330;28;20395;-72
2021/11/06 03:15:04;;;;;;;17.10;8.40;;;;;;;-142.75;100.00;78558.94;5040719;28;20053;-72
2021/11/06 03:17:30;;;;;;;13.47;8.10;;;;;;;-142.75;100.00;78564.84;5036721;28;20037;-71
2021/11/06 03:19:55;;;;;;;16.20;7.78;;;;;;;-142.75;100.00;78555.00;5030446;28;20033;-71
2021/11/06 03:22:21;;;;;;;12.70;8.18;;;;;;;-142.75;100.00;78558.94;5031359;28;20045;-71
2021/11/06 03:24:46;;;;;;;13.60;8.50;;;;;;;-142.75;100.00;78556.97;5037199;28;21626;-72
2021/11/06 03:27:12;;;;;;;13.48;8.50;;;;;;;-142.75;100.00;78555.00;5031976;28;20104;-71
2021/11/06 03:29:37;;;;;;;11.23;7.82;;;;;;;-142.75;100.00;78543.19;5017944;28;20018;-72
2021/11/06 03:32:04;;;;;;;13.18;7.90;;;;;;;-142.75;100.00;78551.06;5036227;28;20053;-71
2021/11/06 03:34:30;;;;;;;12.87;8.03;;;;;;;-142.75;100.00;78555.00;5031554;28;20663;-73
2021/11/06 03:36:56;;;;;;;14.93;9.40;;;;;;;-142.75;100.00;78545.16;5014938;28;20025;-73
2021/11/06 03:39:21;;;;;;;12.43;8.20;;;;;;;-142.75;100.00;78545.16;5033179;28;20037;-72
2021/11/06 03:41:47;;;;;;;15.80;8.85;;;;;;;-142.75;100.00;78539.25;5041412;28;20130;-72
2021/11/06 03:44:13;;;;;;;15.82;8.20;;;;;;;-142.75;100.00;78551.06;5036166;28;20029;-69
2021/11/06 03:46:38;;;;;;;18.88;10.40;;;;;;;-142.75;100.00;78517.59;5037439;28;20445;-72
2021/11/06 03:49:04;;;;;;;18.25;9.13;;;;;;;-142.75;100.00;78523.50;5043209;28;20021;-71
2021/11/06 03:51:29;;;;;;;19.42;9.18;;;;;;;-142.75;100.00;78513.66;5027962;28;20406;-70
2021/11/06 03:53:55;;;;;;;15.27;9.27;;;;;;;-142.75;100.00;78527.44;5038487;28;20099;-71
2021/11/06 03:56:21;;;;;;;18.38;10.30;;;;;;;-142.75;100.00;78521.53;5034837;28;20037;-71
2021/11/06 03:58:48;;;;;;;17.05;9.60;;;;;;;-142.75;100.00;78523.50;5044496;28;20060;-73
2021/11/06 04:01:13;;;;;;;17.93;9.80;;;;;;;-142.75;100.00;78535.31;4992650;28;20029;-71
2021/11/06 04:03:39;;;;;;;17.70;9.75;;;;;;;-142.75;100.00;78521.53;5032051;28;20402;-71
2021/11/06 04:06:04;;;;;;;18.85;10.80;;;;;;;-142.75;100.00;78519.56;5027754;28;20648;-71
2021/11/06 04:08:30;;;;;;;18.13;9.88;;;;;;;-142.75;100.00;78511.69;5031346;28;20021;-72
2021/11/06 04:10:55;;;;;;;22.25;11.45;;;;;;;-142.75;100.00;78497.91;5014640;28;20041;-72
2021/11/06 04:13:20;;;;;;;17.00;10.07;;;;;;;-142.75;100.00;78511.69;5012468;28;20034;-70
2021/11/06 04:15:46;;;;;;;21.27;10.70;;;;;;;-142.75;100.00;78501.84;5037995;28;20244;-70
2021/11/06 04:18:11;;;;;;;18.02;9.68;;;;;;;-142.75;100.00;78511.69;5034584;28;20630;-70
2021/11/06 04:20:37;;;;;;;20.27;10.95;;;;;;;-142.75;100.00;78503.81;5034389;28;20084;-71
2021/11/06 04:23:03;;;;;;;19.60;10.27;;;;;;;-142.75;100.00;78505.78;5013147;28;20025;-72
2021/11/06 04:25:28;;;;;;;17.20;10.75;;;;;;;-142.75;100.00;78523.50;5038575;28;20033;-70
2021/11/06 04:27:54;;;;;;;19.85;10.80;;;;;;;-142.75;100.00;78521.53;5031730;28;20029;-69
2021/11/06 04:30:19;;;;;;;18.50;11.35;;;;;;;-142.75;100.00;78527.44;5034235;28;20029;-71
2021/11/06 04:32:45;;;;;;;21.40;11.88;;;;;;;-142.75;100.00;78523.50;5037684;28;20029;-72
2021/11/06 04:35:10;;;;;;;25.05;12.27;;;;;;;-142.75;100.00;78535.31;5018439;28;20553;-72
2021/11/06 04:37:36;;;;;;;23.42;11.40;;;;;;;-142.75;100.00;78553.03;5032747;28;20029;-71
2021/11/06 04:40:03;;;;;;;17.17;11.48;;;;;;;-142.75;100.00;78558.94;5033253;28;20542;-71
2021/11/06 04:42:28;;;;;;;17.60;11.50;;;;;;;-142.75;100.00;78537.28;5037258;28;20068;-73
2021/11/06 04:44:53;;;;;;;24.55;12.65;;;;;;;-142.75;100.00;78525.47;5031044;28;20033;-71
2021/11/06 04:47:19;;;;;;;19.60;11.48;;;;;;;-142.75;100.00;78511.69;5001231;28;20414;-69
2021/11/06 04:49:44;;;;;;;19.30;12.45;;;;;;;-142.75;100.00;78501.84;5021823;28;20069;-71
2021/11/06 04:52:09;;;;;;;20.25;12.18;;;;;;;-142.75;100.00;78515.63;5017621;28;20093;-69
2021/11/06 04:54:34;;;;;;;21.75;12.23;;;;;;;-142.75;100.00;78517.59;5029091;28;20028;-70
2021/11/06 04:57:00;;;;;;;24.00;12.98;;;;;;;-142.75;100.00;78517.59;5032649;28;20037;-70
2021/11/06 04:59:25;;;;;;;17.80;12.13;;;;;;;-142.75;100.00;78509.72;5015916;28;20104;-72
2021/11/06 05:01:50;;;;;;;23.73;12.70;;;;;;;-142.75;100.00;78503.81;5022327;28;20025;-70
2021/11/06 05:04:16;;;;;;;21.40;12.88;;;;;;;-142.75;100.00;78513.66;5032333;28;20283;-70
2021/11/06 05:06:41;;;;;;;18.77;13.07;;;;;;;-142.75;100.00;78484.09;5032212;28;20026;-70
2021/11/06 05:09:06;;;;;;;24.47;12.93;;;;;;;-142.75;100.00;78505.78;5029790;28;20102;-71
2021/11/06 05:11:32;;;;;;;27.02;14.48;;;;;;;-142.75;100.00;78495.94;5029576;28;20337;-69
2021/11/06 05:13:59;;;;;;;22.00;12.88;;;;;;;-142.75;100.00;78488.03;5029483;28;20087;-70
2021/11/06 05:16:26;;;;;;;24.97;13.50;;;;;;;-142.75;100.00;78476.22;5016516;28;20079;-72
2021/11/06 05:18:53;;;;;;;24.33;13.47;;;;;;;-142.75;100.00;78484.09;5011328;28;20099;-70
2021/11/06 05:21:19;;;;;;;23.03;13.50;;;;;;;-142.75;100.00;78472.28;5009485;28;20022;-72
2021/11/06 05:23:45;;;;;;;23.50;13.60;;;;;;;-142.75;100.00;78480.16;5012512;28;20029;-71
2021/11/06 05:26:10;;;;;;;22.25;12.73;;;;;;;-142.75;100.00;78491.97;5029677;28;20101;-72
2021/11/06 05:28:35;;;;;;;19.90;12.23;;;;;;;-142.75;100.00;78480.16;5033950;28;20086;-72
2021/11/06 05:31:01;;;;;;;25.30;13.52;;;;;;;-142.75;100.00;78478.19;5016386;28;20025;-72
2021/11/06 05:33:26;;;;;;;21.33;13.35;;;;;;;-142.75;100.00;78484.09;5014360;28;20037;-71
2021/11/06 05:35:51;;;;;;;21.33;13.38;;;;;;;-142.75;100.00;78490.00;5029029;28;20096;-72
2021/11/06 05:38:17;;;;;;;22.70;14.70;;;;;;;-142.75;100.00;78491.97;5029845;28;20475;-72
2021/11/06 05:40:42;;;;;;;18.73;11.63;;;;;;;-142.75;100.00;78480.16;5039060;22;20918;-65
2021/11/06 05:43:07;;;;;;;20.73;13.23;;;;;;;-142.75;100.00;78488.03;5047295;28;20290;-65
2021/11/06 05:45:32;;;;;;;17.70;12.27;;;;;;;-142.75;100.00;78490.00;5047642;28;20657;-65
2021/11/06 05:47:58;;;;;;;18.10;12.57;;;;;;;-142.75;100.00;78488.03;5047519;28;20017;-65
2021/11/06 05:50:24;;;;;;;20.97;12.90;;;;;;;-142.75;100.00;78484.09;5018128;28;20056;-65
2021/11/06 05:52:49;;;;;;;21.15;14.07;;;;;;;-142.75;100.00;78476.22;5027495;28;20025;-66
2021/11/06 05:55:17;;;;;;;21.77;13.80;;;;;;;-142.75;100.00;78480.16;5026584;28;20025;-65
2021/11/06 05:57:43;;;;;;;20.43;13.00;;;;;;;-142.75;100.00;78476.22;5027894;28;20064;-65
2021/11/06 06:00:19;;;;;;;21.67;15.03;;;;;;;-142.75;100.00;78472.28;5028393;28;20036;-66
2021/11/06 06:02:45;;;;;;;23.40;14.30;;;;;;;-142.75;100.00;78468.34;5031988;28;20025;-65
2021/11/06 06:05:11;;;;;;;19.98;13.57;;;;;;;-142.75;100.00;78472.28;5013792;28;20029;-65
2021/11/06 06:07:37;;;;;;;22.57;14.53;;;;;;;-142.75;100.00;78484.09;5031864;28;20049;-65
2021/11/06 06:10:09;;;;;;;25.35;15.35;;;;;;;-142.75;100.00;78482.13;5013313;28;20044;-66
2021/11/06 06:12:35;;;;;;;20.23;13.70;;;;;;;-142.75;100.00;78491.97;5031571;28;20444;-65
2021/11/06 06:15:01;;;;;;;23.83;13.75;;;;;;;-142.75;100.00;78486.06;5031348;28;20029;-65
2021/11/06 06:17:26;;;;;;;22.52;13.43;;;;;;;-142.75;100.00;78495.94;5031364;28;20122;-65
2021/11/06 06:19:51;;;;;;;22.60;14.52;;;;;;;-142.75;100.00;78488.03;5012542;28;20021;-65
2021/11/06 06:22:17;;;;;;;25.90;14.95;;;;;;;-142.75;100.00;78491.97;5040210;28;20052;-66
2021/11/06 06:24:42;;;;;;;21.30;14.02;;;;;;;-142.75;100.00;78490.00;5051317;28;20021;-66
2021/11/06 06:27:07;;;;;;;20.45;14.43;;;;;;;-142.75;100.00;78464.41;5050756;28;20568;-66
2021/11/06 06:29:33;;;;;;;22.15;14.85;;;;;;;-142.75;100.00;78480.16;5050707;28;20036;-68
2021/11/06 06:31:59;;;;;;;18.38;13.60;;;;;;;-142.75;100.00;78484.09;5050233;28;20552;-66
2021/11/06 06:34:25;;;;;;;23.52;15.05;;;;;;;-142.75;100.00;78476.22;5050922;28;20025;-65
2021/11/06 06:36:51;;;;;;;23.60;14.43;;;;;;;-142.75;100.00;78493.97;5050683;28;20032;-66
2021/11/06 06:39:16;;;;;;;20.75;14.00;;;;;;;-142.75;100.00;78495.94;5051302;28;20474;-66
2021/11/06 06:41:43;;;;;;;22.45;14.00;;;;;;;-142.75;100.00;78515.63;5050180;28;20024;-66
2021/11/06 06:44:08;;;;;;;22.57;14.33;;;;;;;-142.75;100.00;78505.78;5050472;28;20376;-66
2021/11/06 06:46:34;;;;;;;25.60;14.43;;;;;;;-142.75;100.00;78493.97;5050627;28;20468;-65
2021/11/06 06:48:59;;;;;;;21.35;13.73;;;;;;;-142.75;100.00;78495.94;5050622;28;20267;-65
2021/11/06 06:51:24;;;;;;;21.30;13.83;;;;;;;-142.75;100.00;78491.97;5049687;28;20372;-66
2021/11/06 06:53:50;;;;;;;19.83;14.23;;;;;;;-142.75;100.00;78505.78;5050181;28;20282;-65
2021/11/06 06:56:15;;;;;;;21.13;14.13;;;;;;;-142.75;100.00;78505.78;5050404;28;20321;-66
2021/11/06 06:58:40;;;;;;;21.23;13.88;;;;;;;-142.75;100.00;78507.75;5050692;28;20483;-66
2021/11/06 07:01:08;;;;;;;20.97;12.73;;;;;;;-142.75;100.00;78493.97;5049501;28;20027;-66
2021/11/06 07:03:34;;;;;;;20.50;13.43;;;;;;;-142.75;100.00;78488.03;5050334;28;20279;-66
2021/11/06 07:06:01;;;;;;;22.50;14.60;;;;;;;-142.75;100.00;78484.09;5050172;28;20025;-66
2021/11/06 07:08:26;;;;;;;19.00;13.47;;;;;;;-142.75;100.00;78470.31;5050730;28;20036;-66
2021/11/06 07:10:52;;;;;;;22.02;13.63;;;;;;;-142.75;100.00;78476.22;5048698;28;20017;-67
2021/11/06 07:13:21;;;;;;;17.95;12.88;;;;;;;-142.75;100.00;78484.09;5050139;28;20109;-65
2021/11/06 07:15:48;;;;;;;20.73;14.67;;;;;;;-142.75;100.00;78478.19;5050570;28;20025;-66
2021/11/06 07:18:14;;;;;;;18.17;13.97;;;;;;;-142.75;100.00;78464.41;5049449;28;20025;-66
2021/11/06 07:20:39;;;;;;;22.08;12.63;;;;;;;-142.75;100.00;78460.47;5028455;28;20032;-66
2021/11/06 07:23:04;;;;;;;18.85;12.07;;;;;;;-142.75;100.00;78493.97;5029357;28;20033;-65
2021/11/06 07:25:31;;;;;;;18.65;12.02;;;;;;;-142.75;100.00;78501.84;5031084;28;20379;-66
2021/11/06 07:27:56;;;;;;;19.50;13.17;;;;;;;-142.75;100.00;78497.91;5049139;28;20059;-66
2021/11/06 07:30:22;;;;;;;18.95;11.68;;;;;;;-142.75;100.00;78490.00;5048287;28;20057;-66
2021/11/06 07:32:48;;;;;;;22.48;11.85;;;;;;;-142.75;100.00;78474.25;5049411;28;20063;-66
2021/11/06 07:35:13;;;;;;;17.80;10.30;;;;;;;-142.75;100.00;78476.22;5049063;28;20621;-66
2021/11/06 07:37:39;;;;;;;16.50;10.82;;;;;;;-142.75;100.00;78468.34;5049256;28;20107;-66
2021/11/06 07:40:08;;;;;;;16.85;12.07;;;;;;;-142.75;100.00;78484.09;5048640;28;20505;-65
2021/11/06 07:42:36;;;;;;;19.40;11.60;;;;;;;-142.75;100.00;78484.09;5030970;28;20048;-65
2021/11/06 07:45:01;;;;;;;16.00;10.33;;;;;;;-142.75;100.00;78472.28;5048953;28;20112;-64
2021/11/06 07:47:26;;;;;;;15.30;9.77;;;;;;;-142.75;100.00;78466.38;5049058;28;20057;-66
2021/11/06 07:49:52;;;;;;;16.88;10.52;;;;;;;-142.75;100.00;78454.56;5030165;28;20022;-66
2021/11/06 07:52:17;;;;;;;15.43;9.70;;;;;;;-142.75;100.00;78444.72;5010448;28;20029;-65
2021/11/06 07:54:43;;;;;;;15.13;10.70;;;;;;;-142.75;100.00;78425.03;5028530;28;20479;-67
2021/11/06 07:57:08;;;;;;;14.70;9.90;;;;;;;-142.75;100.00;78417.16;5029323;28;20103;-67
2021/11/06 07:59:34;;;;;;;16.83;9.40;;;;;;;-142.75;100.00;78399.44;5044879;28;20298;-67
2021/11/06 08:02:00;;;;;;;13.38;8.63;;;;;;;-142.75;100.00;78401.38;5045990;28;20021;-67
2021/11/06 08:04:25;;;;;;;16.20;10.32;;;;;;;-142.75;100.00;78391.53;5046947;28;20025;-67
2021/11/06 08:06:51;;;;;;;14.10;8.95;;;;;;;-142.75;100.00;78407.31;5028874;28;20079;-67
2021/11/06 08:09:16;;;;;;;12.65;8.52;;;;;;;-142.75;100.00;78389.56;5047404;28;20032;-67
2021/11/06 08:11:41;;;;;;;11.43;8.15;;;;;;;-142.75;100.00;78395.47;5046218;28;20052;-67
2021/11/06 08:14:07;;;;;;;12.57;8.20;;;;;;;-142.75;100.00;78379.72;5046404;28;20379;-67
2021/11/06 08:16:32;;;;;;;16.00;8.63;;;;;;;-142.75;100.00;78371.84;5028758;28;20070;-67
2021/11/06 08:18:57;;;;;;;15.90;9.10;;;;;;;-142.75;100.00;78375.78;5041449;28;20026;-67
2021/11/06 08:21:23;;;;;;;12.68;8.10;;;;;;;-142.75;100.00;78350.19;5026369;28;20123;-67
2021/11/06 08:23:48;;;;;;;12.73;8.05;;;;;;;-142.75;100.00;78350.19;5027066;28;20449;-69
2021/11/06 08:26:13;;;;;;;14.20;8.70;;;;;;;-142.75;100.00;78360.03;5008895;28;20036;-67
2021/11/06 08:28:39;;;;;;;15.32;7.85;;;;;;;-142.75;100.00;78350.19;5032724;28;20028;-67
2021/11/06 08:31:04;;;;;;;16.17;8.05;;;;;;;-142.75;100.00;78348.22;5016744;28;20549;-67
2021/11/06 08:33:31;;;;;;;14.93;7.70;;;;;;;-142.75;100.00;78340.34;5043565;28;20112;-66
2021/11/06 08:35:57;;;;;;;13.30;7.97;;;;;;;-142.75;100.00;78360.03;5041184;28;20299;-66
2021/11/06 08:38:23;;;;;;;15.68;8.15;;;;;;;-142.75;100.00;78369.88;5027301;28;20050;-66
2021/11/06 08:40:50;;;;;;;14.90;7.63;;;;;;;-142.75;100.00;78344.28;5039738;28;20028;-67
2021/11/06 08:43:16;;;;;;;14.75;7.88;;;;;;;-142.75;100.00;78352.16;5048452;28;20282;-67
2021/11/06 08:45:41;;;;;;;;;;;;;;;-142.75;100.00;78350.19;5049262;28;20029;-66
2021/11/06 08:48:07;;;;;;;16.55;7.68;;;;;;;-142.75;100.00;78340.34;5048929;28;20435;-66
2021/11/06 08:50:32;;;;;;;15.40;8.32;;;;;;;-142.75;100.00;78334.44;5048093;28;20021;-66
2021/11/06 08:52:58;;;;;;;14.20;7.97;;;;;;;-142.75;100.00;78310.81;5046131;28;20072;-66
2021/11/06 08:55:24;;;;;;;15.02;7.32;;;;;;;-142.75;100.00;78287.16;5031273;28;20033;-67
2021/11/06 08:57:49;;;;;;;;;;;;;;;-142.75;100.00;78255.66;5029592;28;20025;-67
2021/11/06 09:00:31;;;;;;;14.40;7.75;;;;;;;-142.75;100.00;78251.72;5027676;28;20204;-67
2021/11/06 09:02:56;;;;;;;14.63;8.10;;;;;;;-142.75;100.00;78257.63;5010934;28;20111;-67
2021/11/06 09:05:21;;;;;;;14.65;7.30;;;;;;;-142.75;100.00;78239.91;5010808;28;20167;-67
2021/11/06 09:07:47;;;;;;;13.82;6.75;;;;;;;-142.75;100.00;78237.94;5028991;28;20025;-67
2021/11/06 09:10:15;;;;;;;12.55;6.57;;;;;;;-142.75;100.00;78228.09;5027339;28;20023;-67
2021/11/06 09:12:41;;;;;;;14.77;6.88;;;;;;;-142.75;100.00;78220.22;5028858;28;20375;-66
2021/11/06 09:15:07;;;;;;;15.40;6.88;;;;;;;-142.75;100.00;78216.28;5028457;28;20017;-66
2021/11/06 09:17:32;;;;;;;13.40;6.60;;;;;;;-142.75;100.00;78218.25;5028416;28;20029;-66
2021/11/06 09:19:58;;;;;;;14.35;6.07;;;;;;;-142.75;100.00;78222.19;5030795;28;20457;-67
2021/11/06 09:22:24;;;;;;;9.90;5.95;;;;;;;-142.75;100.00;78212.34;5048312;28;20078;-66
2021/11/06 09:24:50;;;;;;;10.82;5.95;;;;;;;-142.75;100.00;78220.22;5030186;28;20031;-66
2021/11/06 09:27:19;;;;;;;11.32;6.32;;;;;;;-142.75;100.00;78212.34;5042088;28;20072;-66
2021/11/06 09:29:45;;;;;;;12.93;6.40;;;;;;;-142.75;100.00;78198.56;5027319;28;20021;-66
2021/11/06 09:32:11;;;;;;;9.07;5.90;;;;;;;-142.75;100.00;78192.66;5009850;28;20132;-66
2021/11/06 09:34:40;;;;;;;12.60;5.68;;;;;;;-142.75;100.00;78212.34;5027708;28;20076;-67
2021/11/06 09:37:06;;;;;;;11.93;6.07;;;;;;;-142.75;100.00;78192.66;5027429;28;20079;-66
2021/11/06 09:39:33;;;;;;;13.13;6.55;;;;;;;-142.75;100.00;78212.34;5028176;28;20038;-67
2021/11/06 09:42:00;;;;;;;13.57;7.13;;;;;;;-142.75;100.00;78210.38;5026574;28;20032;-69
2021/11/06 09:44:27;;;;;;;14.40;5.85;;;;;;;-142.75;100.00;78212.34;5027052;28;20029;-67
2021/11/06 09:46:53;;;;;;;12.32;5.50;;;;;;;-142.75;100.00;78208.41;5028232;28;20025;-66
2021/11/06 09:49:19;;;;;;;11.02;6.30;;;;;;;-142.75;100.00;78192.66;5028300;28;20025;-67
2021/11/06 09:51:44;;;;;;;13.43;6.47;;;;;;;-142.75;100.00;78192.66;5027705;28;20061;-67
2021/11/06 09:54:09;;;;;;;16.15;6.55;;;;;;;-142.75;100.00;78188.72;5037605;28;20028;-67
2021/11/06 09:56:35;;;;;;;17.52;6.50;;;;;;;-142.75;100.00;78196.59;5030440;28;20608;-66
2021/11/06 09:59:01;;;;;;;11.45;6.20;;;;;;;-142.75;100.00;78188.72;5047803;28;20108;-67
2021/11/06 10:01:31;;;;;;;17.30;6.70;;;;;;;-142.75;100.00;78204.47;5047018;28;20087;-67
2021/11/06 10:03:57;;;;;;;16.83;6.80;;;;;;;-142.75;100.00;78202.50;5047749;28;20049;-67
2021/11/06 10:06:25;;;;;;;13.88;7.70;;;;;;;-142.75;100.00;78204.47;5048106;28;20036;-66
2021/11/06 10:08:52;;;;;;;14.90;7.13;;;;;;;-142.75;100.00;78208.41;5047701;28;20013;-67
2021/11/06 10:11:21;;;;;;;15.77;7.07;;;;;;;-142.75;100.00;78212.34;5047399;28;20036;-66
2021/11/06 10:13:54;;;;;;;15.90;6.75;;;;;;;-142.75;100.00;78212.34;5047973;28;20032;-68
2021/11/06 10:16:29;;;;;;;14.02;6.85;;;;;;;-142.75;100.00;78188.72;5048020;28;20050;-66
2021/11/06 10:19:10;;;;;;;14.90;6.65;;;;;;;-142.75;100.00;78170.97;5047886;28;20512;-66
2021/11/06 10:21:41;;;;;;;13.55;6.43;;;;;;;-142.75;100.00;78178.84;5046800;28;20021;-67
2021/11/06 10:24:06;;;;;;;12.07;5.80;;;;;;;-142.75;100.00;78176.88;5047766;28;20108;-66
2021/11/06 10:26:32;;;;;;;14.25;7.25;;;;;;;-142.75;100.00;78200.53;5030084;28;20104;-69
2021/11/06 10:29:16;;;;;;;12.35;6.53;;;;;;;-142.75;100.00;78180.81;5047657;28;20017;-66
2021/11/06 10:31:53;;;;;;;13.45;6.68;;;;;;;-142.75;100.00;78176.88;5047317;28;20025;-66
2021/11/06 10:34:20;;;;;;;16.05;6.80;;;;;;;-142.75;100.00;78184.78;5029969;28;20028;-66
2021/11/06 10:36:59;;;;;;;12.60;7.55;;;;;;;-142.75;100.00;78169.00;5046327;28;20059;-66
2021/11/06 10:39:24;;;;;;;16.05;6.90;;;;;;;-142.75;100.00;78149.31;5047620;28;20502;-66
2021/11/06 10:41:50;;;;;;;11.07;6.30;;;;;;;-142.75;100.00;78145.38;5046788;28;20101;-67
2021/11/06 10:44:19;;;;;;;12.13;6.07;;;;;;;-142.75;100.00;78157.19;5047343;28;20031;-68
2021/11/06 10:46:54;;;;;;;11.85;6.25;;;;;;;-142.75;100.00;78161.13;5031100;28;20025;-67
2021/11/06 10:49:42;;;;;;;12.63;6.35;;;;;;;-142.75;100.00;78139.47;5051049;28;20017;-69
2021/11/06 10:52:18;;;;;;;13.88;6.93;;;;;;;-142.75;100.00;78117.81;5050727;28;20021;-67
2021/11/06 10:55:02;;;;;;;12.20;5.90;;;;;;;-142.75;100.00;78113.88;5051278;28;20084;-68